| time (UTC) | temp F | wind direction | speed knots | gust knots | rain 1hr in | rain 24hr in | rain mn in | humidity % | barometer mb |
| 20260906151934 | 76 | 125 | 0.0 | 0.0 | 0.00 | 0.00 | 0.00 | 74 | 1020.6 |
| 20260906151430 | 76 | 85 | 0.0 | 0.0 | 0.00 | 0.00 | 0.00 | 74 | 1020.5 |
| 20260906150926 | 74 | 167 | 0.0 | 0.0 | 0.00 | 0.00 | 0.00 | 78 | 1020.5 |
| 20260906150421 | 73 | 149 | 0.9 | 0.9 | 0.00 | 0.00 | 0.00 | 78 | 1020.2 |
| 20260906145920 | 73 | 128 | 0.0 | 0.0 | 0.00 | 0.00 | 0.00 | 80 | 1020.4 |
| 20260906145419 | 73 | 140 | 0.0 | 0.0 | 0.00 | 0.00 | 0.00 | 81 | 1020.4 |
| 20260906144914 | 73 | 129 | 0.0 | 0.0 | 0.00 | 0.00 | 0.00 | 80 | 1020.4 |
| 20260906144409 | 72 | 169 | 0.0 | 0.0 | 0.00 | 0.00 | 0.00 | 82 | 1020.4 |
| 20260906143904 | 71 | 76 | 0.0 | 0.0 | 0.00 | 0.00 | 0.00 | 83 | 1020.4 |
| 20260906143400 | 71 | 51 | 0.0 | 0.0 | 0.00 | 0.00 | 0.00 | 83 | 1020.2 |
| 20260906142856 | 71 | 127 | 0.0 | 0.0 | 0.00 | 0.00 | 0.00 | 84 | 1020.3 |
| 20260906142356 | 70 | 66 | 0.0 | 0.9 | 0.00 | 0.00 | 0.00 | 84 | 1020.5 |
| 20260906141856 | 70 | 52 | 0.0 | 0.0 | 0.00 | 0.00 | 0.00 | 84 | 1020.5 |
| 20260906141350 | 69 | 46 | 0.0 | 0.0 | 0.00 | 0.00 | 0.00 | 85 | 1020.3 |
| 20260906140850 | 69 | 48 | 0.0 | 0.0 | 0.00 | 0.00 | 0.00 | 86 | 1020.4 |
| 20260906140344 | 69 | 4 | 1.7 | 1.7 | 0.00 | 0.00 | 0.00 | 85 | 1020.5 |
| 20260906135843 | 68 | 100 | 0.0 | 0.0 | 0.00 | 0.00 | 0.00 | 85 | 1020.6 |
| 20260906135343 | 68 | 16 | 1.7 | 1.7 | 0.00 | 0.00 | 0.00 | 85 | 1020.6 |
| 20260906134839 | 68 | 335 | 0.9 | 0.9 | 0.00 | 0.00 | 0.00 | 86 | 1020.4 |
| 20260906134339 | 68 | 14 | 0.9 | 0.9 | 0.00 | 0.00 | 0.00 | 86 | 1020.5 |
| 20260906133835 | 67 | 12 | 0.9 | 0.9 | 0.00 | 0.00 | 0.00 | 86 | 1020.6 |
| 20260906133330 | 68 | 15 | 0.9 | 0.9 | 0.00 | 0.00 | 0.00 | 86 | 1020.5 |
| 20260906132826 | 67 | 15 | 0.0 | 0.0 | 0.00 | 0.00 | 0.00 | 87 | 1020.4 |
| 20260906132321 | 67 | 15 | 0.0 | 0.0 | 0.00 | 0.00 | 0.00 | 87 | 1020.3 |
| 20260906131816 | 67 | 15 | 0.0 | 0.9 | 0.00 | 0.00 | 0.00 | 87 | 1020.4 |
| 20260906131311 | 66 | 15 | 0.0 | 0.0 | 0.00 | 0.00 | 0.00 | 88 | 1020.4 |
| 20260906130807 | 66 | 15 | 0.0 | 0.0 | 0.00 | 0.00 | 0.00 | 88 | 1020.4 |
| 20260906130307 | 66 | 63 | 0.0 | 0.9 | 0.00 | 0.00 | 0.00 | 89 | 1020.3 |
| 20260906125805 | 65 | 48 | 0.0 | 0.0 | 0.00 | 0.00 | 0.00 | 90 | 1020.3 |
| 20260906125306 | 65 | 9 | 1.7 | 2.6 | 0.00 | 0.00 | 0.00 | 92 | 1020.3 |
| 20260906124758 | 64 | 58 | 0.0 | 0.0 | 0.00 | 0.00 | 0.00 | 94 | 1020.5 |
| 20260906124254 | 64 | 59 | 0.0 | 0.9 | 0.00 | 0.00 | 0.00 | 95 | 1020.4 |
| 20260906123753 | 64 | 60 | 0.0 | 0.0 | 0.00 | 0.00 | 0.00 | 96 | 1020.3 |
| 20260906123248 | 63 | 59 | 0.0 | 0.0 | 0.00 | 0.00 | 0.00 | 97 | 1020.1 |
| 20260906122748 | 63 | 60 | 0.0 | 0.9 | 0.00 | 0.00 | 0.00 | 97 | 1020.3 |
| 20260906122243 | 63 | 60 | 0.0 | 0.0 | 0.00 | 0.00 | 0.00 | 97 | 1020.1 |
| 20260906121739 | 63 | 102 | 0.0 | 0.0 | 0.00 | 0.00 | 0.00 | 97 | 1020.1 |
| 20260906121236 | 62 | 102 | 0.0 | 0.0 | 0.00 | 0.00 | 0.00 | 97 | 1020.0 |
| 20260906120731 | 62 | 102 | 0.0 | 0.0 | 0.00 | 0.00 | 0.00 | 97 | 1019.9 |
| 20260906120228 | 62 | 102 | 0.0 | 0.0 | 0.00 | 0.00 | 0.00 | 97 | 1019.9 |
| 20260906115724 | 62 | 102 | 0.0 | 0.0 | 0.00 | 0.00 | 0.00 | 97 | 1019.9 |
| 20260906115224 | 62 | 102 | 0.0 | 0.0 | 0.00 | 0.00 | 0.00 | 97 | 1020.0 |
| 20260906114723 | 62 | 102 | 0.0 | 0.0 | 0.00 | 0.00 | 0.00 | 97 | 1020.1 |
| 20260906114218 | 62 | 102 | 0.0 | 0.0 | 0.00 | 0.00 | 0.00 | 97 | 1020.0 |
| 20260906113713 | 62 | 102 | 0.0 | 0.0 | 0.00 | 0.00 | 0.00 | 97 | 1019.9 |
| 20260906113213 | 62 | 102 | 0.0 | 0.0 | 0.00 | 0.00 | 0.00 | 97 | 1019.8 |
| 20260906112712 | 62 | 102 | 0.0 | 0.0 | 0.00 | 0.00 | 0.00 | 97 | 1019.7 |
| 20260906112210 | 62 | 102 | 0.0 | 0.0 | 0.00 | 0.00 | 0.00 | 97 | 1019.7 |
| 20260906111709 | 62 | 103 | 0.0 | 0.0 | 0.00 | 0.00 | 0.00 | 97 | 1019.6 |
| 20260906111203 | 62 | 103 | 0.0 | 0.0 | 0.00 | 0.00 | 0.00 | 97 | 1019.3 |
| 20260906110659 | 62 | 103 | 0.0 | 0.0 | 0.00 | 0.00 | 0.00 | 97 | 1019.1 |
| 20260906110154 | 62 | 103 | 0.0 | 0.0 | 0.00 | 0.00 | 0.00 | 97 | 1018.9 |
| 20260906105654 | 62 | 103 | 0.0 | 0.0 | 0.00 | 0.00 | 0.00 | 97 | 1018.8 |
| 20260906105150 | 62 | 103 | 0.0 | 0.0 | 0.00 | 0.00 | 0.00 | 96 | 1019.0 |
| 20260906104649 | 63 | 103 | 0.0 | 0.0 | 0.00 | 0.00 | 0.00 | 96 | 1019.0 |
| 20260906104149 | 63 | 103 | 0.0 | 0.0 | 0.00 | 0.00 | 0.00 | 97 | 1018.8 |
| 20260906103647 | 63 | 103 | 0.0 | 0.0 | 0.00 | 0.00 | 0.00 | 96 | 1019.0 |
| 20260906103142 | 63 | 103 | 0.0 | 0.0 | 0.00 | 0.00 | 0.00 | 96 | 1019.2 |
| 20260906102638 | 62 | 103 | 0.0 | 0.0 | 0.00 | 0.00 | 0.00 | 96 | 1018.9 |
| 20260906102137 | 63 | 103 | 0.0 | 0.0 | 0.00 | 0.00 | 0.00 | 96 | 1019.2 |
| 20260906101637 | 63 | 103 | 0.0 | 0.0 | 0.00 | 0.00 | 0.00 | 96 | 1019.1 |
| 20260906101137 | 63 | 103 | 0.0 | 0.0 | 0.00 | 0.00 | 0.00 | 96 | 1019.0 |
| 20260906100632 | 63 | 103 | 0.0 | 0.0 | 0.00 | 0.00 | 0.00 | 96 | 1018.9 |
| 20260906100128 | 63 | 103 | 0.0 | 0.0 | 0.00 | 0.00 | 0.00 | 96 | 1018.7 |
| 20260906095628 | 63 | 103 | 0.0 | 0.0 | 0.00 | 0.00 | 0.00 | 96 | 1019.0 |
| 20260906095123 | 63 | 103 | 0.0 | 0.0 | 0.00 | 0.00 | 0.00 | 96 | 1019.0 |
| 20260906094622 | 63 | 103 | 0.0 | 0.0 | 0.00 | 0.00 | 0.00 | 96 | 1019.1 |
| 20260906094118 | 63 | 103 | 0.0 | 0.0 | 0.00 | 0.00 | 0.00 | 96 | 1019.0 |
| 20260906093614 | 63 | 103 | 0.0 | 0.0 | 0.00 | 0.00 | 0.00 | 96 | 1019.1 |
| 20260906093114 | 63 | 103 | 0.0 | 0.0 | 0.00 | 0.00 | 0.00 | 96 | 1019.2 |
| 20260906092609 | 63 | 103 | 0.0 | 0.0 | 0.00 | 0.00 | 0.00 | 96 | 1018.9 |
| 20260906092104 | 63 | 103 | 0.0 | 0.0 | 0.00 | 0.00 | 0.00 | 96 | 1019.1 |
| 20260906091600 | 63 | 103 | 0.0 | 0.0 | 0.00 | 0.00 | 0.00 | 96 | 1019.0 |
| 20260906091057 | 63 | 103 | 0.0 | 0.0 | 0.00 | 0.00 | 0.00 | 96 | 1019.0 |
| 20260906090556 | 63 | 103 | 0.0 | 0.0 | 0.00 | 0.00 | 0.00 | 96 | 1019.0 |
| 20260906090056 | 63 | 103 | 0.0 | 0.0 | 0.00 | 0.00 | 0.00 | 96 | 1019.0 |
| 20260906085555 | 63 | 103 | 0.0 | 0.0 | 0.00 | 0.00 | 0.00 | 96 | 1019.1 |
| 20260906085050 | 63 | 103 | 0.0 | 0.0 | 0.00 | 0.00 | 0.00 | 95 | 1018.9 |
| 20260906084545 | 63 | 103 | 0.0 | 0.0 | 0.00 | 0.00 | 0.00 | 95 | 1018.9 |
| 20260906084043 | 63 | 103 | 0.0 | 0.0 | 0.00 | 0.00 | 0.00 | 95 | 1018.9 |
| 20260906083539 | 63 | 103 | 0.0 | 0.0 | 0.00 | 0.00 | 0.00 | 95 | 1018.8 |
| 20260906083039 | 63 | 103 | 0.0 | 0.0 | 0.00 | 0.00 | 0.00 | 95 | 1018.8 |
| 20260906082534 | 63 | 103 | 0.0 | 0.0 | 0.00 | 0.00 | 0.00 | 95 | 1018.7 |
| 20260906082030 | 63 | 103 | 0.0 | 0.0 | 0.00 | 0.00 | 0.00 | 95 | 1018.7 |
| 20260906081526 | 63 | 103 | 0.0 | 0.0 | 0.00 | 0.00 | 0.00 | 95 | 1018.8 |
| 20260906081021 | 63 | 103 | 0.0 | 0.0 | 0.00 | 0.00 | 0.00 | 95 | 1018.8 |
| 20260906080517 | 64 | 103 | 0.0 | 0.0 | 0.00 | 0.00 | 0.00 | 95 | 1018.4 |
| 20260906080014 | 64 | 103 | 0.0 | 0.0 | 0.00 | 0.00 | 0.00 | 95 | 1018.8 |
| 20260906075507 | 64 | 103 | 0.0 | 0.0 | 0.00 | 0.00 | 0.00 | 95 | 1018.8 |
| 20260906075002 | 64 | 103 | 0.0 | 0.0 | 0.00 | 0.00 | 0.00 | 95 | 1018.5 |
| 20260906074457 | 64 | 102 | 0.0 | 0.0 | 0.00 | 0.00 | 0.00 | 95 | 1018.6 |
| 20260906073955 | 64 | 103 | 0.0 | 0.0 | 0.00 | 0.00 | 0.00 | 95 | 1018.8 |
| 20260906073450 | 64 | 102 | 0.0 | 0.0 | 0.00 | 0.00 | 0.00 | 95 | 1018.8 |
| 20260906072947 | 64 | 102 | 0.0 | 0.0 | 0.00 | 0.00 | 0.00 | 95 | 1018.9 |
| 20260906072441 | 64 | 103 | 0.0 | 0.0 | 0.00 | 0.00 | 0.00 | 95 | 1018.7 |
| 20260906071937 | 64 | 103 | 0.0 | 0.0 | 0.00 | 0.00 | 0.00 | 95 | 1018.7 |
| 20260906071433 | 64 | 103 | 0.0 | 0.0 | 0.00 | 0.00 | 0.00 | 95 | 1019.0 |
| 20260906070929 | 64 | 103 | 0.0 | 0.0 | 0.00 | 0.00 | 0.00 | 94 | 1018.9 |
| 20260906070425 | 64 | 103 | 0.0 | 0.0 | 0.00 | 0.00 | 0.00 | 94 | 1018.8 |
| 20260906065921 | 64 | 102 | 0.0 | 0.0 | 0.00 | 0.00 | 0.00 | 94 | 1019.0 |
| 20260906065415 | 65 | 102 | 0.0 | 0.0 | 0.00 | 0.00 | 0.00 | 94 | 1019.1 |
| 20260906064910 | 65 | 102 | 0.0 | 0.0 | 0.00 | 0.00 | 0.00 | 94 | 1019.2 |
| 20260906064407 | 65 | 102 | 0.0 | 0.0 | 0.00 | 0.00 | 0.00 | 94 | 1019.0 |
| 20260906063907 | 65 | 102 | 0.0 | 0.0 | 0.00 | 0.00 | 0.00 | 94 | 1019.2 |
| 20260906063402 | 65 | 102 | 0.0 | 0.0 | 0.00 | 0.00 | 0.00 | 94 | 1019.1 |
| 20260906062857 | 65 | 102 | 0.0 | 0.0 | 0.00 | 0.00 | 0.00 | 94 | 1019.1 |
| 20260906062356 | 65 | 102 | 0.0 | 0.0 | 0.00 | 0.00 | 0.00 | 94 | 1019.2 |
| 20260906061851 | 65 | 102 | 0.0 | 0.0 | 0.00 | 0.00 | 0.00 | 94 | 1019.2 |
| 20260906061348 | 66 | 102 | 0.0 | 0.0 | 0.00 | 0.00 | 0.00 | 93 | 1019.3 |
| 20260906060842 | 66 | 102 | 0.0 | 0.0 | 0.00 | 0.00 | 0.00 | 93 | 1019.2 |
| 20260906060340 | 66 | 102 | 0.0 | 0.0 | 0.00 | 0.00 | 0.00 | 93 | 1019.1 |
| 20260906055836 | 66 | 102 | 0.0 | 0.0 | 0.00 | 0.00 | 0.00 | 94 | 1019.1 |
| 20260906055331 | 66 | 102 | 0.0 | 0.0 | 0.00 | 0.00 | 0.00 | 94 | 1018.9 |
| 20260906054826 | 66 | 102 | 0.0 | 0.0 | 0.00 | 0.00 | 0.00 | 94 | 1018.8 |
| 20260906054321 | 66 | 102 | 0.0 | 0.0 | 0.00 | 0.00 | 0.00 | 94 | 1018.8 |
| 20260906053818 | 66 | 102 | 0.0 | 0.0 | 0.00 | 0.00 | 0.00 | 94 | 1019.0 |
| 20260906053313 | 66 | 102 | 0.0 | 0.0 | 0.00 | 0.00 | 0.00 | 93 | 1018.9 |
| 20260906052808 | 66 | 102 | 0.0 | 0.0 | 0.00 | 0.00 | 0.00 | 93 | 1019.0 |
| 20260906052306 | 66 | 102 | 0.0 | 0.0 | 0.00 | 0.00 | 0.00 | 93 | 1018.9 |
| 20260906051802 | 66 | 102 | 0.0 | 0.0 | 0.00 | 0.00 | 0.00 | 93 | 1018.8 |
| 20260906051301 | 67 | 102 | 0.0 | 0.0 | 0.00 | 0.00 | 0.00 | 93 | 1018.8 |
| 20260906050756 | 67 | 102 | 0.0 | 0.0 | 0.00 | 0.00 | 0.00 | 93 | 1019.0 |
| 20260906050251 | 67 | 102 | 0.0 | 0.0 | 0.00 | 0.00 | 0.00 | 93 | 1019.1 |
| 20260906045750 | 67 | 102 | 0.0 | 0.0 | 0.00 | 0.00 | 0.00 | 92 | 1019.0 |
| 20260906045245 | 67 | 102 | 0.0 | 0.0 | 0.00 | 0.00 | 0.00 | 92 | 1018.8 |
| 20260906044741 | 67 | 102 | 0.0 | 0.0 | 0.00 | 0.00 | 0.00 | 92 | 1018.8 |
| 20260906044236 | 67 | 102 | 0.0 | 0.0 | 0.00 | 0.00 | 0.00 | 92 | 1018.6 |
| 20260906043732 | 68 | 102 | 0.0 | 0.0 | 0.00 | 0.00 | 0.00 | 91 | 1018.7 |
| 20260906043228 | 68 | 102 | 0.0 | 0.0 | 0.00 | 0.00 | 0.00 | 91 | 1018.7 |
| 20260906042727 | 68 | 102 | 0.0 | 0.0 | 0.00 | 0.00 | 0.00 | 91 | 1018.6 |
| 20260906042226 | 68 | 102 | 0.0 | 0.0 | 0.00 | 0.00 | 0.00 | 91 | 1018.6 |
| 20260906041722 | 68 | 102 | 0.0 | 0.0 | 0.00 | 0.00 | 0.00 | 91 | 1018.8 |
| 20260906041217 | 69 | 102 | 0.0 | 0.0 | 0.00 | 0.00 | 0.00 | 90 | 1018.6 |
| 20260906040713 | 69 | 102 | 0.0 | 0.0 | 0.00 | 0.00 | 0.00 | 89 | 1018.7 |
| 20260906040208 | 69 | 102 | 0.0 | 0.0 | 0.00 | 0.00 | 0.00 | 89 | 1018.6 |
| 20260906035703 | 69 | 102 | 0.0 | 0.0 | 0.00 | 0.00 | 0.00 | 89 | 1018.3 |
| 20260906035159 | 69 | 140 | 0.0 | 0.0 | 0.00 | 0.00 | 0.00 | 88 | 1018.3 |
| 20260906034653 | 69 | 108 | 0.0 | 0.0 | 0.00 | 0.00 | 0.00 | 89 | 1018.0 |
| 20260906034148 | 70 | 113 | 0.9 | 0.9 | 0.00 | 0.00 | 0.00 | 88 | 1017.9 |
| 20260906033644 | 70 | 130 | 0.0 | 0.0 | 0.00 | 0.00 | 0.00 | 88 | 1018.2 |
| 20260906033143 | 70 | 51 | 0.0 | 0.0 | 0.00 | 0.00 | 0.00 | 87 | 1018.3 |
| 20260906032640 | 70 | 51 | 0.0 | 0.0 | 0.00 | 0.00 | 0.00 | 87 | 1018.1 |
| 20260906032140 | 70 | 51 | 0.0 | 0.9 | 0.00 | 0.00 | 0.00 | 87 | 1018.2 |
| 20260906031635 | 71 | 51 | 0.9 | 0.9 | 0.00 | 0.00 | 0.00 | 86 | 1018.2 |
| 20260906031131 | 71 | 51 | 0.9 | 0.9 | 0.00 | 0.00 | 0.00 | 86 | 1018.1 |
| 20260906030630 | 71 | 47 | 0.0 | 0.9 | 0.00 | 0.00 | 0.00 | 86 | 1018.1 |
| 20260906030126 | 71 | 48 | 0.0 | 0.0 | 0.00 | 0.00 | 0.00 | 85 | 1018.1 |
| 20260906025625 | 72 | 47 | 0.0 | 0.0 | 0.00 | 0.00 | 0.00 | 85 | 1018.0 |
| 20260906025124 | 72 | 46 | 0.0 | 0.0 | 0.00 | 0.00 | 0.00 | 85 | 1018.1 |
| 20260906024619 | 72 | 46 | 0.0 | 0.0 | 0.00 | 0.00 | 0.00 | 85 | 1017.9 |
| 20260906024113 | 72 | 54 | 0.0 | 0.0 | 0.00 | 0.00 | 0.00 | 84 | 1017.8 |
| 20260906023604 | 73 | 42 | 0.0 | 0.0 | 0.00 | 0.00 | 0.00 | 84 | 1017.8 |
| 20260906023103 | 73 | 42 | 0.0 | 0.0 | 0.00 | 0.00 | 0.00 | 84 | 1017.8 |
| 20260906022559 | 73 | 41 | 1.7 | 1.7 | 0.00 | 0.00 | 0.00 | 83 | 1017.6 |
| 20260906022054 | 73 | 118 | 0.9 | 1.7 | 0.00 | 0.00 | 0.00 | 83 | 1017.6 |
| 20260906021550 | 73 | 340 | 0.0 | 0.0 | 0.00 | 0.00 | 0.00 | 84 | 1017.5 |
| 20260906021049 | 73 | 9 | 0.0 | 0.0 | 0.00 | 0.00 | 0.00 | 84 | 1017.4 |
| 20260906020548 | 73 | 145 | 0.9 | 0.9 | 0.00 | 0.00 | 0.00 | 84 | 1017.3 |
| 20260906020048 | 73 | 192 | 0.9 | 0.9 | 0.00 | 0.00 | 0.00 | 85 | 1017.1 |
| 20260906015547 | 73 | 335 | 0.0 | 0.0 | 0.00 | 0.00 | 0.00 | 85 | 1017.0 |
| 20260906015047 | 74 | 329 | 0.9 | 0.9 | 0.00 | 0.00 | 0.00 | 85 | 1016.6 |
| 20260906014542 | 74 | 2 | 0.0 | 0.0 | 0.00 | 0.00 | 0.00 | 85 | 1016.8 |
| 20260906014038 | 74 | 347 | 0.9 | 1.7 | 0.00 | 0.00 | 0.00 | 85 | 1016.6 |
| 20260906013533 | 74 | 187 | 0.9 | 1.7 | 0.00 | 0.00 | 0.00 | 84 | 1016.6 |
| 20260906013029 | 74 | 352 | 0.0 | 0.0 | 0.00 | 0.00 | 0.00 | 84 | 1016.7 |
| 20260906012524 | 74 | 354 | 0.9 | 0.9 | 0.00 | 0.00 | 0.00 | 84 | 1016.7 |
| 20260906012023 | 74 | 355 | 0.9 | 0.9 | 0.00 | 0.00 | 0.00 | 83 | 1016.6 |
| 20260906011519 | 74 | 359 | 0.9 | 0.9 | 0.00 | 0.00 | 0.00 | 83 | 1016.5 |
| 20260906011019 | 75 | 341 | 0.0 | 0.9 | 0.00 | 0.00 | 0.00 | 82 | 1016.5 |
| 20260906010514 | 75 | 28 | 0.9 | 0.9 | 0.00 | 0.00 | 0.00 | 82 | 1016.4 |
| 20260906010011 | 75 | 6 | 0.9 | 0.9 | 0.00 | 0.00 | 0.00 | 82 | 1016.2 |
| 20260906005510 | 75 | 46 | 0.9 | 1.7 | 0.00 | 0.00 | 0.00 | 82 | 1016.5 |
| 20260906005009 | 75 | 71 | 1.7 | 2.6 | 0.00 | 0.00 | 0.00 | 82 | 1016.7 |
| 20260906004509 | 75 | 88 | 0.0 | 0.0 | 0.00 | 0.00 | 0.00 | 81 | 1016.8 |
| 20260906004004 | 75 | 96 | 0.0 | 0.9 | 0.00 | 0.00 | 0.00 | 81 | 1016.7 |
| 20260906003459 | 75 | 348 | 1.7 | 1.7 | 0.00 | 0.00 | 0.00 | 80 | 1016.8 |
| 20260906002954 | 75 | 39 | 1.7 | 1.7 | 0.00 | 0.00 | 0.00 | 80 | 1016.9 |
| 20260906002455 | 75 | 342 | 1.7 | 1.7 | 0.00 | 0.00 | 0.00 | 80 | 1016.8 |
| 20260906001950 | 75 | 72 | 0.9 | 0.9 | 0.00 | 0.00 | 0.00 | 79 | 1016.8 |
| 20260906001446 | 76 | 64 | 0.9 | 1.7 | 0.00 | 0.00 | 0.00 | 79 | 1016.7 |
| 20260906000940 | 76 | 339 | 0.9 | 1.7 | 0.00 | 0.00 | 0.00 | 79 | 1016.8 |
| 20260906000436 | 76 | 34 | 0.9 | 0.9 | 0.00 | 0.00 | 0.00 | 78 | 1016.5 |
| 20260905235930 | 76 | 62 | 0.0 | 0.9 | 0.00 | 0.00 | 0.00 | 77 | 1016.6 |
| 20260905235430 | 76 | 47 | 0.0 | 0.0 | 0.00 | 0.00 | 0.00 | 77 | 1016.7 |
| 20260905234925 | 76 | 64 | 0.0 | 0.9 | 0.00 | 0.00 | 0.00 | 77 | 1016.7 |
| 20260905234420 | 77 | 48 | 0.9 | 0.9 | 0.00 | 0.00 | 0.00 | 76 | 1016.6 |
| 20260905233915 | 77 | 72 | 0.0 | 0.0 | 0.00 | 0.00 | 0.00 | 76 | 1016.5 |
| 20260905233410 | 77 | 63 | 0.9 | 0.9 | 0.00 | 0.00 | 0.00 | 75 | 1016.7 |
| 20260905232909 | 77 | 66 | 0.0 | 0.0 | 0.00 | 0.00 | 0.00 | 75 | 1016.4 |
| 20260905232405 | 77 | 37 | 0.0 | 0.9 | 0.00 | 0.00 | 0.00 | 73 | 1016.7 |
| 20260905231901 | 78 | 345 | 1.7 | 2.6 | 0.00 | 0.00 | 0.00 | 73 | 1016.7 |
| 20260905231356 | 78 | 70 | 0.9 | 1.7 | 0.00 | 0.00 | 0.00 | 73 | 1016.6 |
| 20260905230853 | 78 | 62 | 0.0 | 0.9 | 0.00 | 0.00 | 0.00 | 73 | 1016.7 |
| 20260905230350 | 78 | 50 | 0.0 | 0.0 | 0.00 | 0.00 | 0.00 | 73 | 1016.5 |
| 20260905225849 | 78 | 11 | 1.7 | 2.6 | 0.00 | 0.00 | 0.00 | 73 | 1016.8 |
| 20260905225344 | 78 | 137 | 0.0 | 0.0 | 0.00 | 0.00 | 0.00 | 73 | 1016.7 |
| 20260905224840 | 78 | 20 | 0.9 | 0.9 | 0.00 | 0.00 | 0.00 | 72 | 1016.6 |
| 20260905224336 | 78 | 72 | 1.7 | 2.6 | 0.00 | 0.00 | 0.00 | 71 | 1016.7 |
| 20260905223836 | 78 | 6 | 1.7 | 1.7 | 0.00 | 0.00 | 0.00 | 72 | 1016.5 |
| 20260905223334 | 78 | 6 | 2.6 | 3.5 | 0.00 | 0.00 | 0.00 | 71 | 1016.8 |
| 20260905222828 | 79 | 44 | 0.9 | 0.9 | 0.00 | 0.00 | 0.00 | 72 | 1016.6 |
| 20260905222327 | 79 | 34 | 0.0 | 0.0 | 0.00 | 0.00 | 0.00 | 73 | 1016.4 |
| 20260905221823 | 79 | 24 | 0.0 | 0.0 | 0.00 | 0.00 | 0.00 | 73 | 1016.7 |
| 20260905221320 | 79 | 7 | 0.9 | 1.7 | 0.00 | 0.00 | 0.00 | 73 | 1016.6 |
| 20260905220816 | 79 | 3 | 0.9 | 1.7 | 0.00 | 0.00 | 0.00 | 73 | 1016.4 |
| 20260905220312 | 79 | 354 | 0.0 | 0.9 | 0.00 | 0.00 | 0.00 | 73 | 1016.0 |
| 20260905215811 | 79 | 18 | 0.0 | 0.9 | 0.00 | 0.00 | 0.00 | 74 | 1016.2 |
| 20260905215307 | 79 | 347 | 0.9 | 0.9 | 0.00 | 0.00 | 0.00 | 73 | 1016.3 |
| 20260905214802 | 79 | 22 | 1.7 | 1.7 | 0.00 | 0.00 | 0.00 | 74 | 1016.4 |
| 20260905214258 | 79 | 65 | 0.0 | 0.0 | 0.00 | 0.00 | 0.00 | 75 | 1016.3 |
| 20260905213753 | 78 | 48 | 0.0 | 0.9 | 0.00 | 0.00 | 0.00 | 75 | 1016.7 |
| 20260905213249 | 78 | 61 | 0.0 | 0.0 | 0.00 | 0.00 | 0.00 | 76 | 1016.5 |
| 20260905212744 | 79 | 42 | 0.9 | 0.9 | 0.00 | 0.00 | 0.00 | 74 | 1016.5 |
| 20260905212243 | 79 | 52 | 0.0 | 0.0 | 0.00 | 0.00 | 0.00 | 73 | 1016.6 |
| 20260905211743 | 80 | 51 | 0.0 | 0.0 | 0.00 | 0.00 | 0.00 | 73 | 1016.5 |
| 20260905211238 | 80 | 49 | 0.0 | 0.9 | 0.00 | 0.00 | 0.00 | 73 | 1016.6 |
| 20260905210735 | 79 | 67 | 0.9 | 0.9 | 0.00 | 0.00 | 0.00 | 73 | 1016.5 |
| 20260905210234 | 80 | 130 | 0.9 | 0.9 | 0.00 | 0.00 | 0.00 | 72 | 1016.4 |
| 20260905205733 | 80 | 158 | 0.0 | 0.9 | 0.00 | 0.00 | 0.00 | 72 | 1016.6 |
| 20260905205229 | 80 | 24 | 2.6 | 2.6 | 0.00 | 0.00 | 0.00 | 70 | 1016.8 |
| 20260905204728 | 80 | 117 | 1.7 | 1.7 | 0.00 | 0.00 | 0.00 | 71 | 1016.7 |
| 20260905204224 | 80 | 58 | 0.9 | 0.9 | 0.00 | 0.00 | 0.00 | 71 | 1016.7 |
| 20260905203723 | 80 | 12 | 0.9 | 1.7 | 0.00 | 0.00 | 0.00 | 70 | 1016.7 |
| 20260905203219 | 80 | 34 | 0.9 | 0.9 | 0.00 | 0.00 | 0.00 | 70 | 1016.7 |
| 20260905202714 | 80 | 347 | 0.9 | 0.9 | 0.00 | 0.00 | 0.00 | 69 | 1016.6 |
| 20260905202209 | 81 | 8 | 1.7 | 1.7 | 0.00 | 0.00 | 0.00 | 67 | 1016.6 |
| 20260905201705 | 80 | 9 | 0.9 | 0.9 | 0.00 | 0.00 | 0.00 | 71 | 1016.5 |
| 20260905201205 | 80 | 8 | 0.9 | 1.7 | 0.00 | 0.00 | 0.00 | 71 | 1016.3 |
| 20260905200700 | 80 | 1 | 0.9 | 0.9 | 0.00 | 0.00 | 0.00 | 70 | 1016.5 |
| 20260905200155 | 80 | 356 | 1.7 | 1.7 | 0.00 | 0.00 | 0.00 | 72 | 1016.5 |
| 20260905195654 | 79 | 351 | 1.7 | 1.7 | 0.00 | 0.00 | 0.00 | 74 | 1016.8 |
| 20260905195149 | 78 | 313 | 3.5 | 3.5 | 0.00 | 0.00 | 0.00 | 74 | 1016.9 |
| 20260905194644 | 78 | 326 | 0.9 | 1.7 | 0.00 | 0.00 | 0.00 | 75 | 1016.7 |
| 20260905194144 | 78 | 5 | 2.6 | 3.5 | 0.00 | 0.00 | 0.00 | 74 | 1016.8 |
| 20260905193639 | 78 | 341 | 0.9 | 0.9 | 0.00 | 0.00 | 0.00 | 75 | 1016.9 |
| 20260905193139 | 79 | 38 | 1.7 | 2.6 | 0.00 | 0.00 | 0.00 | 75 | 1017.0 |
| 20260905192634 | 79 | 33 | 0.9 | 0.9 | 0.00 | 0.00 | 0.00 | 75 | 1016.8 |
| 20260905192131 | 79 | 69 | 0.9 | 1.7 | 0.00 | 0.00 | 0.00 | 75 | 1016.8 |
| 20260905191630 | 79 | 65 | 0.0 | 0.0 | 0.00 | 0.00 | 0.00 | 75 | 1016.9 |
| 20260905191128 | 79 | 25 | 1.7 | 2.6 | 0.00 | 0.00 | 0.00 | 74 | 1017.0 |
| 20260905190627 | 79 | 11 | 0.9 | 1.7 | 0.00 | 0.00 | 0.00 | 75 | 1016.9 |
| 20260905190126 | 79 | 3 | 2.6 | 2.6 | 0.00 | 0.00 | 0.00 | 74 | 1017.0 |
| 20260905185626 | 79 | 351 | 1.7 | 1.7 | 0.00 | 0.00 | 0.00 | 73 | 1016.8 |
| 20260905185126 | 80 | 166 | 0.9 | 0.9 | 0.00 | 0.00 | 0.00 | 73 | 1016.8 |
| 20260905184620 | 80 | 40 | 0.9 | 1.7 | 0.00 | 0.00 | 0.00 | 74 | 1016.8 |
| 20260905184119 | 80 | 96 | 1.7 | 1.7 | 0.00 | 0.00 | 0.00 | 74 | 1017.0 |
| 20260905183618 | 81 | 276 | 0.9 | 0.9 | 0.00 | 0.00 | 0.00 | 73 | 1016.8 |
| 20260905183114 | 81 | 81 | 0.9 | 0.9 | 0.00 | 0.00 | 0.00 | 73 | 1016.9 |
| 20260905182614 | 81 | 204 | 0.9 | 0.9 | 0.00 | 0.00 | 0.00 | 71 | 1016.9 |
| 20260905182113 | 82 | 112 | 0.0 | 0.0 | 0.00 | 0.00 | 0.00 | 71 | 1016.9 |
| 20260905181608 | 82 | 48 | 0.9 | 0.9 | 0.00 | 0.00 | 0.00 | 71 | 1016.9 |
| 20260905181107 | 82 | 85 | 0.9 | 1.7 | 0.00 | 0.00 | 0.00 | 71 | 1016.9 |
| 20260905180602 | 81 | 357 | 2.6 | 3.5 | 0.00 | 0.00 | 0.00 | 71 | 1017.0 |
| 20260905180057 | 80 | 1 | 1.7 | 1.7 | 0.00 | 0.00 | 0.00 | 74 | 1017.0 |
| 20260905175556 | 78 | 340 | 0.9 | 0.9 | 0.00 | 0.00 | 0.00 | 78 | 1017.0 |
| 20260905175052 | 77 | 338 | 1.7 | 2.6 | 0.00 | 0.00 | 0.00 | 78 | 1017.1 |
| 20260905174548 | 77 | 157 | 0.9 | 0.9 | 0.00 | 0.00 | 0.00 | 81 | 1017.3 |
| 20260905174043 | 76 | 52 | 0.0 | 0.0 | 0.00 | 0.00 | 0.00 | 83 | 1017.4 |
| 20260905173540 | 76 | 14 | 0.9 | 1.7 | 0.00 | 0.00 | 0.00 | 83 | 1017.3 |
| 20260905173035 | 75 | 70 | 0.0 | 0.0 | 0.00 | 0.00 | 0.00 | 83 | 1017.4 |
| 20260905172533 | 75 | 68 | 0.0 | 0.0 | 0.00 | 0.00 | 0.00 | 84 | 1017.4 |
| 20260905172029 | 75 | 64 | 1.7 | 1.7 | 0.00 | 0.00 | 0.00 | 83 | 1017.4 |
| 20260905171525 | 75 | 347 | 1.7 | 1.7 | 0.00 | 0.00 | 0.00 | 83 | 1017.4 |
| 20260905171021 | 75 | 342 | 1.7 | 1.7 | 0.00 | 0.00 | 0.00 | 83 | 1017.3 |
| 20260905170517 | 75 | 339 | 0.9 | 0.9 | 0.00 | 0.00 | 0.00 | 85 | 1017.4 |
| 20260905170012 | 75 | 351 | 1.7 | 2.6 | 0.00 | 0.00 | 0.00 | 84 | 1017.4 |
| 20260905165507 | 74 | 84 | 0.0 | 0.0 | 0.00 | 0.00 | 0.00 | 86 | 1017.0 |
| 20260905165002 | 74 | 34 | 0.9 | 1.7 | 0.00 | 0.00 | 0.00 | 86 | 1017.4 |
| 20260905164501 | 74 | 358 | 0.9 | 1.7 | 0.00 | 0.00 | 0.00 | 87 | 1017.6 |
| 20260905163956 | 74 | 3 | 1.7 | 1.7 | 0.00 | 0.00 | 0.00 | 87 | 1017.5 |
| 20260905163453 | 74 | 3 | 0.0 | 0.9 | 0.00 | 0.00 | 0.00 | 88 | 1017.5 |
| 20260905162948 | 74 | 8 | 0.9 | 1.7 | 0.00 | 0.00 | 0.00 | 87 | 1017.5 |
| 20260905162444 | 74 | 8 | 2.6 | 3.5 | 0.00 | 0.00 | 0.00 | 87 | 1017.5 |
| 20260905161938 | 74 | 19 | 0.9 | 0.9 | 0.00 | 0.00 | 0.00 | 87 | 1017.5 |
| 20260905161438 | 73 | 19 | 1.7 | 1.7 | 0.00 | 0.00 | 0.00 | 87 | 1017.5 |
| 20260905160936 | 73 | 19 | 1.7 | 1.7 | 0.00 | 0.00 | 0.00 | 87 | 1017.3 |
| 20260905160430 | 73 | 1 | 1.7 | 1.7 | 0.00 | 0.00 | 0.00 | 87 | 1017.5 |
| 20260905155929 | 73 | 23 | 0.0 | 0.9 | 0.00 | 0.00 | 0.00 | 87 | 1017.3 |
| 20260905155424 | 73 | 26 | 0.9 | 1.7 | 0.00 | 0.00 | 0.00 | 87 | 1017.3 |
| 20260905154923 | 73 | 351 | 1.7 | 2.6 | 0.00 | 0.00 | 0.00 | 87 | 1017.3 |
| 20260905154419 | 73 | 346 | 1.7 | 1.7 | 0.00 | 0.00 | 0.00 | 87 | 1017.3 |
| 20260905153914 | 74 | 95 | 0.0 | 0.0 | 0.00 | 0.00 | 0.00 | 88 | 1017.3 |
| 20260905153410 | 73 | 92 | 0.9 | 0.9 | 0.00 | 0.00 | 0.00 | 89 | 1017.1 |
| 20260905152910 | 73 | 61 | 0.0 | 0.9 | 0.00 | 0.00 | 0.00 | 88 | 1017.3 |
| 20260905152409 | 73 | 19 | 0.0 | 0.9 | 0.00 | 0.00 | 0.00 | 88 | 1017.1 |